Alburg, Vermont
Current Conditions -  °F | °C
As of 7:55 PM on Saturday 22 Nov 2014 (Local Time) from KFSO Reporting Station
Light Snow Light Snow  
Wind Chill: -4°   Ceiling: 3000
Heat Index:   Visibility: 3mi
Dew Point: -3°   Wind: 8mph
Humidity: 82%   Direction: 170°S
Pressure: 29.94"   Gusts: NA
Location:  44.9685°N, 73.281°W
Report Text: KFSO 222355Z AUTO 17007KT 3SM -SN SCT016 OVC030 00/M03 A2994 RMK AO2 T10011029 10017 21005
Loading
Personal Weather Stations






























Interactive Weather Map New forecast layout! Learn more

10-Day Weather Forecast

Advertisements
Track Severe Weather on mobile